sensor_id;sensor_type;location;lat;lon;timestamp;pressure;altitude;pressure_sealevel;temperature;humidity
71424;BME280;59240;51.370;-0.486;2022-11-15T00:00:55;100397.41;;;9.20;84.53
71424;BME280;59240;51.370;-0.486;2022-11-15T00:03:26;100405.19;;;9.20;84.55
71424;BME280;59240;51.370;-0.486;2022-11-15T00:05:53;100399.16;;;9.18;85.15
71424;BME280;59240;51.370;-0.486;2022-11-15T00:08:19;100403.50;;;9.18;84.85
71424;BME280;59240;51.370;-0.486;2022-11-15T00:10:56;100399.22;;;9.15;85.26
71424;BME280;59240;51.370;-0.486;2022-11-15T00:13:23;100363.22;;;9.00;84.38
71424;BME280;59240;51.370;-0.486;2022-11-15T00:15:50;100346.84;;;8.95;85.05
71424;BME280;59240;51.370;-0.486;2022-11-15T00:18:17;100377.66;;;9.12;85.31
71424;BME280;59240;51.370;-0.486;2022-11-15T00:20:44;100380.28;;;9.10;84.84
71424;BME280;59240;51.370;-0.486;2022-11-15T00:23:11;100363.84;;;9.10;85.25
71424;BME280;59240;51.370;-0.486;2022-11-15T00:25:38;100357.78;;;9.09;84.80
71424;BME280;59240;51.370;-0.486;2022-11-15T00:28:04;100321.81;;;8.91;85.51
71424;BME280;59240;51.370;-0.486;2022-11-15T00:30:31;100342.19;;;9.09;84.43
71424;BME280;59240;51.370;-0.486;2022-11-15T00:33:04;100339.56;;;9.11;85.21
71424;BME280;59240;51.370;-0.486;2022-11-15T00:35:32;100337.75;;;9.14;83.79
71424;BME280;59240;51.370;-0.486;2022-11-15T00:38:00;100335.16;;;9.14;84.31
71424;BME280;59240;51.370;-0.486;2022-11-15T00:40:26;100319.56;;;9.14;83.85
71424;BME280;59240;51.370;-0.486;2022-11-15T00:42:53;100325.53;;;9.18;84.00
71424;BME280;59240;51.370;-0.486;2022-11-15T00:45:19;100316.88;;;9.17;83.54
71424;BME280;59240;51.370;-0.486;2022-11-15T00:47:46;100315.09;;;9.19;83.52
71424;BME280;59240;51.370;-0.486;2022-11-15T00:50:13;100312.44;;;9.22;84.33
71424;BME280;59240;51.370;-0.486;2022-11-15T00:52:41;100308.09;;;9.23;84.04
71424;BME280;59240;51.370;-0.486;2022-11-15T00:55:13;100290.00;;;9.18;83.70
71424;BME280;59240;51.370;-0.486;2022-11-15T00:57:41;100294.25;;;9.22;84.28
71424;BME280;59240;51.370;-0.486;2022-11-15T01:00:08;100248.94;;;8.97;83.18
71424;BME280;59240;51.370;-0.486;2022-11-15T01:02:35;100286.41;;;9.24;83.70
71424;BME280;59240;51.370;-0.486;2022-11-15T01:05:01;100278.56;;;9.25;83.57
71424;BME280;59240;51.370;-0.486;2022-11-15T01:07:28;100270.72;;;9.28;82.93
71424;BME280;59240;51.370;-0.486;2022-11-15T01:09:54;100244.25;;;9.13;84.10
71424;BME280;59240;51.370;-0.486;2022-11-15T01:12:21;100265.50;;;9.28;83.06
71424;BME280;59240;51.370;-0.486;2022-11-15T01:14:47;100261.16;;;9.29;84.10
71424;BME280;59240;51.370;-0.486;2022-11-15T01:17:14;100266.31;;;9.30;83.92
71424;BME280;59240;51.370;-0.486;2022-11-15T01:19:40;100258.53;;;9.30;82.75
71424;BME280;59240;51.370;-0.486;2022-11-15T01:22:07;100246.38;;;9.31;83.05
71424;BME280;59240;51.370;-0.486;2022-11-15T01:24:33;100235.94;;;9.32;84.43
71424;BME280;59240;51.370;-0.486;2022-11-15T01:27:00;100231.59;;;9.33;83.52
71424;BME280;59240;51.370;-0.486;2022-11-15T01:29:26;100221.97;;;9.37;83.65
71424;BME280;59240;51.370;-0.486;2022-11-15T01:31:53;100215.88;;;9.38;82.69
71424;BME280;59240;51.370;-0.486;2022-11-15T01:34:20;100202.88;;;9.38;82.95
71424;BME280;59240;51.370;-0.486;2022-11-15T01:36:46;100202.81;;;9.41;83.36
71424;BME280;59240;51.370;-0.486;2022-11-15T01:39:13;100205.41;;;9.41;83.62
71424;BME280;59240;51.370;-0.486;2022-11-15T01:41:39;100201.88;;;9.43;83.03
71424;BME280;59240;51.370;-0.486;2022-11-15T01:47:10;100197.44;;;9.47;83.00
71424;BME280;59240;51.370;-0.486;2022-11-15T01:49:39;100172.69;;;9.34;83.16
71424;BME280;59240;51.370;-0.486;2022-11-15T01:52:10;100200.81;;;9.50;83.05
71424;BME280;59240;51.370;-0.486;2022-11-15T01:54:38;100200.72;;;9.53;83.17
71424;BME280;59240;51.370;-0.486;2022-11-15T01:57:09;100185.09;;;9.55;83.40
71424;BME280;59240;51.370;-0.486;2022-11-15T01:59:38;100175.59;;;9.54;82.95
71424;BME280;59240;51.370;-0.486;2022-11-15T02:02:06;100177.94;;;9.63;83.60
71424;BME280;59240;51.370;-0.486;2022-11-15T02:04:37;100167.44;;;9.66;83.75
71424;BME280;59240;51.370;-0.486;2022-11-15T02:07:08;100158.03;;;9.62;83.12
71424;BME280;59240;51.370;-0.486;2022-11-15T02:09:37;100165.63;;;9.70;82.13
71424;BME280;59240;51.370;-0.486;2022-11-15T02:12:04;100156.09;;;9.69;83.46
71424;BME280;59240;51.370;-0.486;2022-11-15T02:14:33;100138.03;;;9.64;82.33
71424;BME280;59240;51.370;-0.486;2022-11-15T02:20:08;100140.53;;;9.67;83.46
71424;BME280;59240;51.370;-0.486;2022-11-15T02:26:04;100137.06;;;9.67;82.72
71424;BME280;59240;51.370;-0.486;2022-11-15T02:28:45;100121.53;;;9.65;83.86
71424;BME280;59240;51.370;-0.486;2022-11-15T02:36:26;100122.41;;;9.64;82.34
71424;BME280;59240;51.370;-0.486;2022-11-15T02:39:07;100099.91;;;9.63;83.23
71424;BME280;59240;51.370;-0.486;2022-11-15T02:44:21;100084.25;;;9.65;83.23
71424;BME280;59240;51.370;-0.486;2022-11-15T02:46:53;100085.00;;;9.70;83.67
71424;BME280;59240;51.370;-0.486;2022-11-15T02:49:42;100083.09;;;9.75;83.48
71424;BME280;59240;51.370;-0.486;2022-11-15T02:52:14;100070.13;;;9.73;84.53
71424;BME280;59240;51.370;-0.486;2022-11-15T02:54:41;100063.84;;;9.80;84.49
71424;BME280;59240;51.370;-0.486;2022-11-15T02:57:14;100056.88;;;9.81;83.66
71424;BME280;59240;51.370;-0.486;2022-11-15T02:59:53;100049.72;;;9.89;84.65
71424;BME280;59240;51.370;-0.486;2022-11-15T03:05:46;100045.06;;;9.99;83.78
71424;BME280;59240;51.370;-0.486;2022-11-15T03:11:09;100036.28;;;10.03;83.93
71424;BME280;59240;51.370;-0.486;2022-11-15T03:13:42;100034.47;;;10.05;83.81
71424;BME280;59240;51.370;-0.486;2022-11-15T03:16:15;100035.22;;;10.08;83.49
71424;BME280;59240;51.370;-0.486;2022-11-15T03:18:48;100023.88;;;10.11;83.56
71424;BME280;59240;51.370;-0.486;2022-11-15T03:21:18;99986.03;;;10.01;84.28
71424;BME280;59240;51.370;-0.486;2022-11-15T03:23:47;100011.47;;;10.19;84.40
71424;BME280;59240;51.370;-0.486;2022-11-15T03:26:16;99996.69;;;10.20;83.45
71424;BME280;59240;51.370;-0.486;2022-11-15T03:28:50;100003.50;;;10.25;83.95
71424;BME280;59240;51.370;-0.486;2022-11-15T03:31:21;100006.78;;;10.30;84.33
71424;BME280;59240;51.370;-0.486;2022-11-15T03:34:19;100007.47;;;10.35;84.01
71424;BME280;59240;51.370;-0.486;2022-11-15T03:36:49;99998.66;;;10.39;84.54
71424;BME280;59240;51.370;-0.486;2022-11-15T03:39:16;99990.75;;;10.43;84.46
71424;BME280;59240;51.370;-0.486;2022-11-15T03:44:51;99992.00;;;10.57;85.15
71424;BME280;59240;51.370;-0.486;2022-11-15T03:47:27;99983.91;;;10.65;84.75
71424;BME280;59240;51.370;-0.486;2022-11-15T03:50:11;99979.28;;;10.73;84.27
71424;BME280;59240;51.370;-0.486;2022-11-15T03:52:39;99971.25;;;10.79;84.21
71424;BME280;59240;51.370;-0.486;2022-11-15T03:55:09;99945.63;;;10.67;84.55
71424;BME280;59240;51.370;-0.486;2022-11-15T03:57:37;99962.13;;;10.91;84.57
71424;BME280;59240;51.370;-0.486;2022-11-15T04:00:04;99964.50;;;10.97;84.26
71424;BME280;59240;51.370;-0.486;2022-11-15T04:02:31;99958.22;;;11.03;84.04
71424;BME280;59240;51.370;-0.486;2022-11-15T04:04:57;99938.13;;;11.06;83.54
71424;BME280;59240;51.370;-0.486;2022-11-15T04:07:24;99931.84;;;11.12;84.06
71424;BME280;59240;51.370;-0.486;2022-11-15T04:09:51;99928.94;;;11.19;83.42
71424;BME280;59240;51.370;-0.486;2022-11-15T04:12:33;99916.38;;;11.29;83.40
71424;BME280;59240;51.370;-0.486;2022-11-15T04:15:03;99922.13;;;11.37;83.27
71424;BME280;59240;51.370;-0.486;2022-11-15T04:22:58;99905.88;;;11.52;82.33
71424;BME280;59240;51.370;-0.486;2022-11-15T04:25:44;99903.84;;;11.61;82.75
71424;BME280;59240;51.370;-0.486;2022-11-15T04:28:12;99900.19;;;11.65;82.68
71424;BME280;59240;51.370;-0.486;2022-11-15T04:30:38;99889.75;;;11.65;81.85
71424;BME280;59240;51.370;-0.486;2022-11-15T04:33:05;99874.94;;;11.65;81.92
71424;BME280;59240;51.370;-0.486;2022-11-15T04:35:31;99864.31;;;11.70;82.27
71424;BME280;59240;51.370;-0.486;2022-11-15T04:37:58;99872.59;;;11.79;81.20
71424;BME280;59240;51.370;-0.486;2022-11-15T04:40:25;99876.75;;;11.85;81.73
71424;BME280;59240;51.370;-0.486;2022-11-15T04:42:51;99872.28;;;11.89;82.09
71424;BME280;59240;51.370;-0.486;2022-11-15T04:45:18;99838.06;;;11.74;81.93
71424;BME280;59240;51.370;-0.486;2022-11-15T04:47:45;99866.00;;;11.93;81.57
71424;BME280;59240;51.370;-0.486;2022-11-15T04:50:13;99859.09;;;11.92;80.84
71424;BME280;59240;51.370;-0.486;2022-11-15T04:52:50;99860.59;;;11.97;80.33
71424;BME280;59240;51.370;-0.486;2022-11-15T04:55:18;99849.31;;;11.97;81.26
71424;BME280;59240;51.370;-0.486;2022-11-15T04:57:45;99843.25;;;11.96;81.08
71424;BME280;59240;51.370;-0.486;2022-11-15T05:00:13;99846.50;;;12.01;80.78
71424;BME280;59240;51.370;-0.486;2022-11-15T05:02:40;99843.84;;;12.03;80.89
71424;BME280;59240;51.370;-0.486;2022-11-15T05:05:25;99842.00;;;12.05;80.90
71424;BME280;59240;51.370;-0.486;2022-11-15T05:07:52;99829.88;;;12.04;80.12
71424;BME280;59240;51.370;-0.486;2022-11-15T05:10:18;99831.44;;;12.08;79.88
71424;BME280;59240;51.370;-0.486;2022-11-15T05:12:46;99815.69;;;12.10;80.24
71424;BME280;59240;51.370;-0.486;2022-11-15T05:15:13;99810.41;;;12.11;80.81
71424;BME280;59240;51.370;-0.486;2022-11-15T05:17:39;99820.69;;;12.14;80.39
71424;BME280;59240;51.370;-0.486;2022-11-15T05:20:06;99806.94;;;12.11;80.80
71424;BME280;59240;51.370;-0.486;2022-11-15T05:22:33;99807.59;;;12.16;79.91
71424;BME280;59240;51.370;-0.486;2022-11-15T05:24:59;99807.59;;;12.16;80.18
71424;BME280;59240;51.370;-0.486;2022-11-15T05:27:26;99788.53;;;12.14;79.79
71424;BME280;59240;51.370;-0.486;2022-11-15T05:29:52;99793.63;;;12.17;79.68
71424;BME280;59240;51.370;-0.486;2022-11-15T05:32:19;99783.97;;;12.19;79.92
71424;BME280;59240;51.370;-0.486;2022-11-15T05:34:45;99769.38;;;12.15;80.21
71424;BME280;59240;51.370;-0.486;2022-11-15T05:37:13;99762.31;;;12.17;80.11
71424;BME280;59240;51.370;-0.486;2022-11-15T05:39:40;99769.88;;;12.23;80.00
71424;BME280;59240;51.370;-0.486;2022-11-15T05:42:09;99760.34;;;12.22;79.98
71424;BME280;59240;51.370;-0.486;2022-11-15T05:44:39;99756.94;;;12.20;79.70
71424;BME280;59240;51.370;-0.486;2022-11-15T05:47:08;99762.03;;;12.23;80.39
71424;BME280;59240;51.370;-0.486;2022-11-15T05:49:38;99754.19;;;12.23;80.69
71424;BME280;59240;51.370;-0.486;2022-11-15T05:52:07;99764.69;;;12.21;79.96
71424;BME280;59240;51.370;-0.486;2022-11-15T05:54:37;99740.34;;;12.21;80.94
71424;BME280;59240;51.370;-0.486;2022-11-15T05:57:04;99758.41;;;12.25;80.75
71424;BME280;59240;51.370;-0.486;2022-11-15T05:59:31;99747.91;;;12.27;80.76
71424;BME280;59240;51.370;-0.486;2022-11-15T06:01:58;99721.66;;;12.11;80.89
71424;BME280;59240;51.370;-0.486;2022-11-15T06:04:25;99736.03;;;12.20;81.03
71424;BME280;59240;51.370;-0.486;2022-11-15T06:06:52;99732.50;;;12.21;80.63
71424;BME280;59240;51.370;-0.486;2022-11-15T06:09:18;99737.72;;;12.21;81.25
71424;BME280;59240;51.370;-0.486;2022-11-15T06:11:45;99739.72;;;12.16;81.18
71424;BME280;59240;51.370;-0.486;2022-11-15T06:14:11;99739.72;;;12.16;81.87
71424;BME280;59240;51.370;-0.486;2022-11-15T06:16:38;99730.31;;;12.12;83.21
71424;BME280;59240;51.370;-0.486;2022-11-15T06:19:06;99728.75;;;12.08;81.92
71424;BME280;59240;51.370;-0.486;2022-11-15T06:21:33;99702.56;;;11.90;82.84
71424;BME280;59240;51.370;-0.486;2022-11-15T06:23:59;99714.34;;;11.99;82.92
71424;BME280;59240;51.370;-0.486;2022-11-15T06:26:25;99716.28;;;11.95;84.00
71424;BME280;59240;51.370;-0.486;2022-11-15T06:28:52;99712.16;;;11.90;83.80
71424;BME280;59240;51.370;-0.486;2022-11-15T06:31:18;99707.97;;;11.86;83.44
71424;BME280;59240;51.370;-0.486;2022-11-15T06:33:46;99699.53;;;11.79;83.85
71424;BME280;59240;51.370;-0.486;2022-11-15T06:36:13;99703.00;;;11.81;83.79
71424;BME280;59240;51.370;-0.486;2022-11-15T06:38:44;99701.31;;;11.78;84.38
71424;BME280;59240;51.370;-0.486;2022-11-15T06:41:11;99701.56;;;11.72;84.69
71424;BME280;59240;51.370;-0.486;2022-11-15T06:43:39;99695.47;;;11.73;84.66
71424;BME280;59240;51.370;-0.486;2022-11-15T06:46:06;99688.53;;;11.72;84.49
71424;BME280;59240;51.370;-0.486;2022-11-15T06:48:34;99679.16;;;11.68;84.90
71424;BME280;59240;51.370;-0.486;2022-11-15T06:51:02;99682.63;;;11.69;85.12
71424;BME280;59240;51.370;-0.486;2022-11-15T06:53:30;99670.63;;;11.65;85.73
71424;BME280;59240;51.370;-0.486;2022-11-15T06:56:02;99672.31;;;11.66;85.52
71424;BME280;59240;51.370;-0.486;2022-11-15T06:58:29;99656.66;;;11.66;86.14
71424;BME280;59240;51.370;-0.486;2022-11-15T07:01:03;99658.63;;;11.61;87.52
71424;BME280;59240;51.370;-0.486;2022-11-15T07:03:31;99660.31;;;11.62;86.19
71424;BME280;59240;51.370;-0.486;2022-11-15T07:05:58;99661.28;;;11.59;86.08
71424;BME280;59240;51.370;-0.486;2022-11-15T07:08:32;99630.66;;;11.44;86.71
71424;BME280;59240;51.370;-0.486;2022-11-15T07:11:00;99664.81;;;11.58;86.50
71424;BME280;59240;51.370;-0.486;2022-11-15T07:13:29;99653.69;;;11.55;86.67
71424;BME280;59240;51.370;-0.486;2022-11-15T07:16:04;99635.63;;;11.50;87.10
71424;BME280;59240;51.370;-0.486;2022-11-15T07:18:34;99650.28;;;11.52;87.91
71424;BME280;59240;51.370;-0.486;2022-11-15T07:21:05;99645.06;;;11.52;87.61
71424;BME280;59240;51.370;-0.486;2022-11-15T07:23:32;99639.22;;;11.47;87.79
71424;BME280;59240;51.370;-0.486;2022-11-15T07:25:59;99640.72;;;11.53;87.77
71424;BME280;59240;51.370;-0.486;2022-11-15T07:28:27;99637.19;;;11.54;88.04
71424;BME280;59240;51.370;-0.486;2022-11-15T07:30:53;99631.25;;;11.50;87.25
71424;BME280;59240;51.370;-0.486;2022-11-15T07:33:20;99626.88;;;11.51;88.17
71424;BME280;59240;51.370;-0.486;2022-11-15T07:35:47;99577.72;;;11.23;88.44
71424;BME280;59240;51.370;-0.486;2022-11-15T07:38:16;99577.59;;;11.26;88.17
71424;BME280;59240;51.370;-0.486;2022-11-15T07:40:47;99621.47;;;11.56;88.56
71424;BME280;59240;51.370;-0.486;2022-11-15T07:43:13;99613.91;;;11.49;88.75
71424;BME280;59240;51.370;-0.486;2022-11-15T07:45:42;99590.91;;;11.39;88.48
71424;BME280;59240;51.370;-0.486;2022-11-15T07:48:09;99605.06;;;11.54;90.74
71424;BME280;59240;51.370;-0.486;2022-11-15T07:50:36;99608.44;;;11.56;89.50
71424;BME280;59240;51.370;-0.486;2022-11-15T07:53:02;99612.72;;;11.57;90.02
71424;BME280;59240;51.370;-0.486;2022-11-15T07:55:29;99601.59;;;11.53;91.40
71424;BME280;59240;51.370;-0.486;2022-11-15T07:58:07;99585.38;;;11.46;91.47
71424;BME280;59240;51.370;-0.486;2022-11-15T08:00:35;99608.28;;;11.59;90.93
71424;BME280;59240;51.370;-0.486;2022-11-15T08:03:07;99578.50;;;11.44;91.44
71424;BME280;59240;51.370;-0.486;2022-11-15T08:05:35;99578.13;;;11.53;90.52
71424;BME280;59240;51.370;-0.486;2022-11-15T08:08:03;99596.88;;;11.61;91.39
71424;BME280;59240;51.370;-0.486;2022-11-15T08:10:30;99573.59;;;11.57;92.17
71424;BME280;59240;51.370;-0.486;2022-11-15T08:13:08;99594.97;;;11.65;92.13
71424;BME280;59240;51.370;-0.486;2022-11-15T08:15:36;99590.66;;;11.64;91.83
71424;BME280;59240;51.370;-0.486;2022-11-15T08:18:08;99555.88;;;11.44;92.62
71424;BME280;59240;51.370;-0.486;2022-11-15T08:20:35;99588.81;;;11.66;92.18
71424;BME280;59240;51.370;-0.486;2022-11-15T08:23:03;99575.09;;;11.62;92.66
71424;BME280;59240;51.370;-0.486;2022-11-15T08:25:31;99582.84;;;11.64;92.54
71424;BME280;59240;51.370;-0.486;2022-11-15T08:28:04;99577.69;;;11.62;93.30
71424;BME280;59240;51.370;-0.486;2022-11-15T08:30:35;99573.31;;;11.63;93.72
71424;BME280;59240;51.370;-0.486;2022-11-15T08:33:03;99576.41;;;11.71;93.20
71424;BME280;59240;51.370;-0.486;2022-11-15T08:35:30;99578.13;;;11.72;93.48
71424;BME280;59240;51.370;-0.486;2022-11-15T08:37:56;99565.16;;;11.70;94.34
71424;BME280;59240;51.370;-0.486;2022-11-15T08:40:23;99539.50;;;11.61;94.42
71424;BME280;59240;51.370;-0.486;2022-11-15T08:42:50;99551.63;;;11.62;93.66
71424;BME280;59240;51.370;-0.486;2022-11-15T08:45:16;99550.34;;;11.71;93.72
71424;BME280;59240;51.370;-0.486;2022-11-15T08:47:43;99541.09;;;11.64;94.83
71424;BME280;59240;51.370;-0.486;2022-11-15T08:50:15;99551.19;;;11.71;94.45
71424;BME280;59240;51.370;-0.486;2022-11-15T08:52:42;99543.44;;;11.70;95.58
71424;BME280;59240;51.370;-0.486;2022-11-15T08:55:08;99527.22;;;11.63;95.75
71424;BME280;59240;51.370;-0.486;2022-11-15T08:57:35;99543.28;;;11.73;96.81
71424;BME280;59240;51.370;-0.486;2022-11-15T09:00:03;99520.38;;;11.61;95.38
71424;BME280;59240;51.370;-0.486;2022-11-15T09:02:30;99527.78;;;11.70;97.15
71424;BME280;59240;51.370;-0.486;2022-11-15T09:04:56;99536.25;;;11.75;96.01
71424;BME280;59240;51.370;-0.486;2022-11-15T09:07:23;99528.34;;;11.76;95.74
71424;BME280;59240;51.370;-0.486;2022-11-15T09:09:50;99519.66;;;11.76;96.60
71424;BME280;59240;51.370;-0.486;2022-11-15T09:12:17;99502.69;;;11.67;96.48
71424;BME280;59240;51.370;-0.486;2022-11-15T09:14:43;99499.00;;;11.71;96.92
71424;BME280;59240;51.370;-0.486;2022-11-15T09:17:10;99495.63;;;11.69;96.95
71424;BME280;59240;51.370;-0.486;2022-11-15T09:19:36;99508.16;;;11.80;96.00
71424;BME280;59240;51.370;-0.486;2022-11-15T09:22:08;99487.28;;;11.80;97.76
71424;BME280;59240;51.370;-0.486;2022-11-15T09:24:35;99480.38;;;11.79;97.00
71424;BME280;59240;51.370;-0.486;2022-11-15T09:27:02;99475.31;;;11.76;96.63
71424;BME280;59240;51.370;-0.486;2022-11-15T09:29:28;99475.16;;;11.79;97.80
71424;BME280;59240;51.370;-0.486;2022-11-15T09:31:55;99472.28;;;11.85;97.81
71424;BME280;59240;51.370;-0.486;2022-11-15T09:34:21;99459.41;;;11.82;97.40
71424;BME280;59240;51.370;-0.486;2022-11-15T09:36:48;99455.19;;;11.78;96.50
71424;BME280;59240;51.370;-0.486;2022-11-15T09:39:14;99440.47;;;11.77;98.30
71424;BME280;59240;51.370;-0.486;2022-11-15T09:50:27;99432.00;;;11.91;99.14
71424;BME280;59240;51.370;-0.486;2022-11-15T09:52:54;99414.13;;;11.83;98.95
71424;BME280;59240;51.370;-0.486;2022-11-15T09:55:52;99423.81;;;11.98;99.20
71424;BME280;59240;51.370;-0.486;2022-11-15T09:58:26;99423.81;;;11.98;98.46
71424;BME280;59240;51.370;-0.486;2022-11-15T10:00:57;99408.44;;;11.92;97.62
71424;BME280;59240;51.370;-0.486;2022-11-15T10:03:33;99394.63;;;11.90;99.61
71424;BME280;59240;51.370;-0.486;2022-11-15T10:06:02;99399.56;;;11.96;96.77
71424;BME280;59240;51.370;-0.486;2022-11-15T10:08:58;99412.97;;;12.06;98.16
71424;BME280;59240;51.370;-0.486;2022-11-15T10:11:30;99392.47;;;11.98;98.21
71424;BME280;59240;51.370;-0.486;2022-11-15T10:14:24;99387.44;;;11.95;99.42
71424;BME280;59240;51.370;-0.486;2022-11-15T10:19:56;99400.75;;;12.07;98.84
71424;BME280;59240;51.370;-0.486;2022-11-15T10:22:53;99389.56;;;12.04;100.00
71424;BME280;59240;51.370;-0.486;2022-11-15T10:25:26;99371.47;;;12.01;99.89
71424;BME280;59240;51.370;-0.486;2022-11-15T10:30:39;99359.31;;;12.00;99.69
71424;BME280;59240;51.370;-0.486;2022-11-15T10:41:20;99346.25;;;12.00;100.00
71424;BME280;59240;51.370;-0.486;2022-11-15T10:46:28;99339.31;;;12.01;100.00
71424;BME280;59240;51.370;-0.486;2022-11-15T10:49:16;99330.53;;;12.02;100.00
71424;BME280;59240;51.370;-0.486;2022-11-15T10:51:49;99301.13;;;11.98;100.00
71424;BME280;59240;51.370;-0.486;2022-11-15T10:56:57;99314.72;;;12.05;100.00
71424;BME280;59240;51.370;-0.486;2022-11-15T10:59:28;99307.09;;;12.00;100.00
71424;BME280;59240;51.370;-0.486;2022-11-15T11:02:45;99313.69;;;12.08;100.00
71424;BME280;59240;51.370;-0.486;2022-11-15T11:05:34;99307.63;;;12.07;100.00
71424;BME280;59240;51.370;-0.486;2022-11-15T11:10:38;99291.31;;;12.03;100.00
71424;BME280;59240;51.370;-0.486;2022-11-15T11:13:26;99299.75;;;12.09;100.00
71424;BME280;59240;51.370;-0.486;2022-11-15T11:25:10;99269.31;;;12.08;100.00
71424;BME280;59240;51.370;-0.486;2022-11-15T11:28:08;99261.50;;;12.08;100.00
71424;BME280;59240;51.370;-0.486;2022-11-15T11:33:16;99232.34;;;11.99;100.00
71424;BME280;59240;51.370;-0.486;2022-11-15T11:47:28;99209.16;;;12.11;100.00
71424;BME280;59240;51.370;-0.486;2022-11-15T11:50:11;99202.25;;;12.10;100.00
71424;BME280;59240;51.370;-0.486;2022-11-15T11:55:26;99195.84;;;12.15;100.00
71424;BME280;59240;51.370;-0.486;2022-11-15T11:58:20;99194.09;;;12.16;100.00
71424;BME280;59240;51.370;-0.486;2022-11-15T12:00:56;99181.88;;;12.16;100.00
71424;BME280;59240;51.370;-0.486;2022-11-15T12:03:44;99184.31;;;12.19;100.00
71424;BME280;59240;51.370;-0.486;2022-11-15T12:06:27;99174.88;;;12.17;100.00
71424;BME280;59240;51.370;-0.486;2022-11-15T12:14:42;99150.28;;;12.21;100.00
71424;BME280;59240;51.370;-0.486;2022-11-15T12:17:12;99156.28;;;12.23;100.00
71424;BME280;59240;51.370;-0.486;2022-11-15T12:19:39;99161.31;;;12.26;100.00
71424;BME280;59240;51.370;-0.486;2022-11-15T12:22:15;99150.88;;;12.26;100.00
71424;BME280;59240;51.370;-0.486;2022-11-15T12:24:50;99155.16;;;12.27;100.00
71424;BME280;59240;51.370;-0.486;2022-11-15T12:29:55;99135.22;;;12.26;100.00
71424;BME280;59240;51.370;-0.486;2022-11-15T12:34:53;99129.47;;;12.35;100.00
71424;BME280;59240;51.370;-0.486;2022-11-15T12:45:41;99123.56;;;12.47;100.00
71424;BME280;59240;51.370;-0.486;2022-11-15T12:56:17;99116.63;;;12.78;100.00
71424;BME280;59240;51.370;-0.486;2022-11-15T13:11:57;99132.47;;;13.35;100.00
71424;BME280;59240;51.370;-0.486;2022-11-15T13:14:44;99131.38;;;13.39;100.00
71424;BME280;59240;51.370;-0.486;2022-11-15T13:17:27;99133.63;;;13.45;100.00
71424;BME280;59240;51.370;-0.486;2022-11-15T13:22:48;99146.13;;;13.40;100.00
71424;BME280;59240;51.370;-0.486;2022-11-15T13:25:27;99152.28;;;13.39;100.00
71424;BME280;59240;51.370;-0.486;2022-11-15T13:30:36;99157.59;;;13.37;100.00
71424;BME280;59240;51.370;-0.486;2022-11-15T13:33:33;99165.44;;;13.37;100.00
71424;BME280;59240;51.370;-0.486;2022-11-15T13:36:18;99162.19;;;13.34;100.00
71424;BME280;59240;51.370;-0.486;2022-11-15T13:38:54;99152.44;;;13.22;100.00
71424;BME280;59240;51.370;-0.486;2022-11-15T13:41:24;99148.72;;;13.10;100.00
71424;BME280;59240;51.370;-0.486;2022-11-15T13:43:53;99157.00;;;13.02;100.00
71424;BME280;59240;51.370;-0.486;2022-11-15T13:46:25;99163.44;;;12.97;100.00
71424;BME280;59240;51.370;-0.486;2022-11-15T13:48:59;99156.03;;;12.89;100.00
71424;BME280;59240;51.370;-0.486;2022-11-15T13:51:36;99165.09;;;12.83;100.00
71424;BME280;59240;51.370;-0.486;2022-11-15T13:54:07;99167.00;;;12.80;100.00
71424;BME280;59240;51.370;-0.486;2022-11-15T13:56:35;99163.66;;;12.78;100.00
71424;BME280;59240;51.370;-0.486;2022-11-15T13:59:51;99164.66;;;12.75;100.00
71424;BME280;59240;51.370;-0.486;2022-11-15T14:02:25;99157.75;;;12.74;100.00
71424;BME280;59240;51.370;-0.486;2022-11-15T14:04:57;99165.69;;;12.73;100.00
71424;BME280;59240;51.370;-0.486;2022-11-15T14:07:26;99160.78;;;12.67;100.00
71424;BME280;59240;51.370;-0.486;2022-11-15T14:09:54;99159.78;;;12.69;100.00
71424;BME280;59240;51.370;-0.486;2022-11-15T14:12:34;99167.25;;;12.75;100.00
71424;BME280;59240;51.370;-0.486;2022-11-15T14:17:46;99167.34;;;12.74;100.00
71424;BME280;59240;51.370;-0.486;2022-11-15T14:23:01;99166.88;;;12.67;100.00
71424;BME280;59240;51.370;-0.486;2022-11-15T14:25:29;99167.69;;;12.68;100.00
71424;BME280;59240;51.370;-0.486;2022-11-15T14:30:50;99163.75;;;12.60;100.00
71424;BME280;59240;51.370;-0.486;2022-11-15T14:35:50;99164.09;;;12.54;100.00
71424;BME280;59240;51.370;-0.486;2022-11-15T14:38:17;99165.97;;;12.52;100.00
71424;BME280;59240;51.370;-0.486;2022-11-15T14:40:43;99155.84;;;12.46;100.00
71424;BME280;59240;51.370;-0.486;2022-11-15T14:43:11;99173.97;;;12.49;100.00
71424;BME280;59240;51.370;-0.486;2022-11-15T14:45:38;99168.91;;;12.46;100.00
71424;BME280;59240;51.370;-0.486;2022-11-15T14:48:05;99177.84;;;12.42;100.00
71424;BME280;59240;51.370;-0.486;2022-11-15T14:50:33;99182.47;;;12.37;100.00
71424;BME280;59240;51.370;-0.486;2022-11-15T14:53:00;99172.50;;;12.28;100.00
71424;BME280;59240;51.370;-0.486;2022-11-15T14:55:34;99189.28;;;12.24;100.00
71424;BME280;59240;51.370;-0.486;2022-11-15T14:58:03;99174.13;;;12.15;100.00
71424;BME280;59240;51.370;-0.486;2022-11-15T15:00:32;99177.81;;;12.11;100.00
71424;BME280;59240;51.370;-0.486;2022-11-15T15:03:01;99188.09;;;12.14;100.00
71424;BME280;59240;51.370;-0.486;2022-11-15T15:08:03;99180.00;;;12.02;100.00
71424;BME280;59240;51.370;-0.486;2022-11-15T15:10:35;99181.78;;;12.02;100.00
71424;BME280;59240;51.370;-0.486;2022-11-15T15:13:14;99174.50;;;11.91;100.00
71424;BME280;59240;51.370;-0.486;2022-11-15T15:15:41;99185.56;;;11.96;100.00
71424;BME280;59240;51.370;-0.486;2022-11-15T15:18:08;99196.59;;;12.01;100.00
71424;BME280;59240;51.370;-0.486;2022-11-15T15:20:36;99182.34;;;11.91;100.00
71424;BME280;59240;51.370;-0.486;2022-11-15T15:23:03;99197.34;;;12.03;100.00
71424;BME280;59240;51.370;-0.486;2022-11-15T15:25:34;99182.00;;;11.97;100.00
71424;BME280;59240;51.370;-0.486;2022-11-15T15:28:01;99196.66;;;12.00;100.00
71424;BME280;59240;51.370;-0.486;2022-11-15T15:30:30;99188.31;;;11.93;100.00
71424;BME280;59240;51.370;-0.486;2022-11-15T15:32:56;99192.03;;;11.89;100.00